sensor_id;sensor_type;location;lat;lon;timestamp;P1;durP1;ratioP1;P2;durP2;ratioP2
3307;SDS011;1666;48.898;9.182;2022-09-27T00:00:31;16.92;;;11.30;;
3307;SDS011;1666;48.898;9.182;2022-09-27T00:03:01;30.42;;;18.10;;
3307;SDS011;1666;48.898;9.182;2022-09-27T00:05:34;28.98;;;16.88;;
3307;SDS011;1666;48.898;9.182;2022-09-27T00:08:04;28.83;;;18.02;;
3307;SDS011;1666;48.898;9.182;2022-09-27T00:10:34;26.67;;;15.93;;
3307;SDS011;1666;48.898;9.182;2022-09-27T00:13:04;24.85;;;15.98;;
3307;SDS011;1666;48.898;9.182;2022-09-27T00:15:34;24.92;;;16.55;;
3307;SDS011;1666;48.898;9.182;2022-09-27T00:18:04;23.45;;;14.80;;
3307;SDS011;1666;48.898;9.182;2022-09-27T00:20:37;13.45;;;8.32;;
3307;SDS011;1666;48.898;9.182;2022-09-27T00:23:07;6.38;;;4.38;;
3307;SDS011;1666;48.898;9.182;2022-09-27T00:25:37;4.93;;;3.17;;
3307;SDS011;1666;48.898;9.182;2022-09-27T00:28:07;2.78;;;1.60;;
3307;SDS011;1666;48.898;9.182;2022-09-27T00:30:40;2.70;;;1.45;;
3307;SDS011;1666;48.898;9.182;2022-09-27T00:33:10;2.03;;;0.90;;
3307;SDS011;1666;48.898;9.182;2022-09-27T00:35:42;1.05;;;0.90;;
3307;SDS011;1666;48.898;9.182;2022-09-27T00:38:13;0.95;;;0.90;;
3307;SDS011;1666;48.898;9.182;2022-09-27T00:40:43;1.08;;;0.75;;
3307;SDS011;1666;48.898;9.182;2022-09-27T00:43:15;1.45;;;0.90;;
3307;SDS011;1666;48.898;9.182;2022-09-27T00:45:47;1.90;;;1.02;;
3307;SDS011;1666;48.898;9.182;2022-09-27T00:48:21;1.33;;;0.77;;
3307;SDS011;1666;48.898;9.182;2022-09-27T00:50:59;0.95;;;0.80;;
3307;SDS011;1666;48.898;9.182;2022-09-27T00:53:32;1.58;;;0.88;;
3307;SDS011;1666;48.898;9.182;2022-09-27T00:56:07;1.00;;;0.80;;
3307;SDS011;1666;48.898;9.182;2022-09-27T00:58:41;1.77;;;0.80;;
3307;SDS011;1666;48.898;9.182;2022-09-27T01:01:14;2.78;;;1.33;;
3307;SDS011;1666;48.898;9.182;2022-09-27T01:03:47;1.38;;;0.90;;
3307;SDS011;1666;48.898;9.182;2022-09-27T01:06:26;0.88;;;0.70;;
3307;SDS011;1666;48.898;9.182;2022-09-27T01:08:56;1.88;;;0.75;;
3307;SDS011;1666;48.898;9.182;2022-09-27T01:11:33;1.50;;;0.70;;
3307;SDS011;1666;48.898;9.182;2022-09-27T01:14:18;2.20;;;1.15;;
3307;SDS011;1666;48.898;9.182;2022-09-27T01:17:08;0.98;;;0.57;;
3307;SDS011;1666;48.898;9.182;2022-09-27T01:19:58;3.50;;;0.75;;
3307;SDS011;1666;48.898;9.182;2022-09-27T01:22:53;0.77;;;0.60;;
3307;SDS011;1666;48.898;9.182;2022-09-27T01:25:42;1.17;;;0.70;;
3307;SDS011;1666;48.898;9.182;2022-09-27T01:28:26;2.65;;;0.85;;
3307;SDS011;1666;48.898;9.182;2022-09-27T01:31:11;0.75;;;0.60;;
3307;SDS011;1666;48.898;9.182;2022-09-27T01:33:52;1.38;;;0.60;;
3307;SDS011;1666;48.898;9.182;2022-09-27T01:36:32;1.30;;;0.68;;
3307;SDS011;1666;48.898;9.182;2022-09-27T01:39:16;0.63;;;0.60;;
3307;SDS011;1666;48.898;9.182;2022-09-27T01:41:55;1.90;;;0.60;;
3307;SDS011;1666;48.898;9.182;2022-09-27T01:44:32;1.52;;;0.60;;
3307;SDS011;1666;48.898;9.182;2022-09-27T01:47:11;1.13;;;0.80;;
3307;SDS011;1666;48.898;9.182;2022-09-27T01:49:46;1.80;;;0.73;;
3307;SDS011;1666;48.898;9.182;2022-09-27T01:52:21;1.50;;;0.68;;
3307;SDS011;1666;48.898;9.182;2022-09-27T01:54:55;0.60;;;0.47;;
3307;SDS011;1666;48.898;9.182;2022-09-27T01:57:30;2.38;;;0.77;;
3307;SDS011;1666;48.898;9.182;2022-09-27T02:00:05;4.65;;;0.63;;
3307;SDS011;1666;48.898;9.182;2022-09-27T02:02:39;1.13;;;0.55;;
3307;SDS011;1666;48.898;9.182;2022-09-27T02:05:14;1.83;;;0.73;;
3307;SDS011;1666;48.898;9.182;2022-09-27T02:07:47;1.27;;;0.63;;
3307;SDS011;1666;48.898;9.182;2022-09-27T02:10:22;2.13;;;0.93;;
3307;SDS011;1666;48.898;9.182;2022-09-27T02:12:57;1.75;;;0.75;;
3307;SDS011;1666;48.898;9.182;2022-09-27T02:18:07;1.52;;;0.68;;
3307;SDS011;1666;48.898;9.182;2022-09-27T02:20:45;1.05;;;0.65;;
3307;SDS011;1666;48.898;9.182;2022-09-27T02:23:20;1.25;;;0.70;;
3307;SDS011;1666;48.898;9.182;2022-09-27T02:25:53;1.60;;;0.80;;
3307;SDS011;1666;48.898;9.182;2022-09-27T02:28:26;3.35;;;0.80;;
3307;SDS011;1666;48.898;9.182;2022-09-27T02:31:00;3.15;;;0.80;;
3307;SDS011;1666;48.898;9.182;2022-09-27T02:33:33;1.15;;;0.57;;
3307;SDS011;1666;48.898;9.182;2022-09-27T02:36:07;1.63;;;0.70;;
3307;SDS011;1666;48.898;9.182;2022-09-27T02:38:37;5.05;;;0.90;;
3307;SDS011;1666;48.898;9.182;2022-09-27T02:41:11;1.58;;;0.70;;
3307;SDS011;1666;48.898;9.182;2022-09-27T02:43:43;1.40;;;0.70;;
3307;SDS011;1666;48.898;9.182;2022-09-27T02:46:21;3.13;;;0.80;;
3307;SDS011;1666;48.898;9.182;2022-09-27T02:49:08;5.90;;;0.80;;
3307;SDS011;1666;48.898;9.182;2022-09-27T02:51:50;0.80;;;0.68;;
3307;SDS011;1666;48.898;9.182;2022-09-27T02:54:30;2.13;;;0.70;;
3307;SDS011;1666;48.898;9.182;2022-09-27T02:57:20;2.60;;;0.80;;
3307;SDS011;1666;48.898;9.182;2022-09-27T02:59:59;3.40;;;1.02;;
3307;SDS011;1666;48.898;9.182;2022-09-27T03:02:35;4.63;;;1.20;;
3307;SDS011;1666;48.898;9.182;2022-09-27T03:05:16;3.58;;;1.08;;
3307;SDS011;1666;48.898;9.182;2022-09-27T03:07:48;4.78;;;1.20;;
3307;SDS011;1666;48.898;9.182;2022-09-27T03:10:19;3.60;;;1.20;;
3307;SDS011;1666;48.898;9.182;2022-09-27T03:12:50;3.92;;;1.40;;
3307;SDS011;1666;48.898;9.182;2022-09-27T03:15:21;5.05;;;1.48;;
3307;SDS011;1666;48.898;9.182;2022-09-27T03:17:51;5.55;;;1.48;;
3307;SDS011;1666;48.898;9.182;2022-09-27T03:20:23;4.65;;;1.55;;
3307;SDS011;1666;48.898;9.182;2022-09-27T03:22:54;6.72;;;1.60;;
3307;SDS011;1666;48.898;9.182;2022-09-27T03:25:24;4.45;;;1.42;;
3307;SDS011;1666;48.898;9.182;2022-09-27T03:27:54;6.72;;;2.10;;
3307;SDS011;1666;48.898;9.182;2022-09-27T03:30:24;5.03;;;1.65;;
3307;SDS011;1666;48.898;9.182;2022-09-27T03:32:54;4.75;;;1.83;;
3307;SDS011;1666;48.898;9.182;2022-09-27T03:35:26;4.20;;;2.00;;
3307;SDS011;1666;48.898;9.182;2022-09-27T03:37:56;5.03;;;2.30;;
3307;SDS011;1666;48.898;9.182;2022-09-27T03:40:26;5.70;;;2.10;;
3307;SDS011;1666;48.898;9.182;2022-09-27T03:42:56;3.95;;;2.00;;
3307;SDS011;1666;48.898;9.182;2022-09-27T03:45:27;5.95;;;2.17;;
3307;SDS011;1666;48.898;9.182;2022-09-27T03:47:57;4.38;;;2.10;;
3307;SDS011;1666;48.898;9.182;2022-09-27T03:50:29;4.65;;;2.13;;
3307;SDS011;1666;48.898;9.182;2022-09-27T03:52:59;4.60;;;2.13;;
3307;SDS011;1666;48.898;9.182;2022-09-27T03:55:29;7.95;;;2.20;;
3307;SDS011;1666;48.898;9.182;2022-09-27T03:57:59;7.00;;;2.47;;
3307;SDS011;1666;48.898;9.182;2022-09-27T04:00:29;7.72;;;2.53;;
3307;SDS011;1666;48.898;9.182;2022-09-27T04:02:59;5.50;;;2.30;;
3307;SDS011;1666;48.898;9.182;2022-09-27T04:05:32;5.40;;;2.53;;
3307;SDS011;1666;48.898;9.182;2022-09-27T04:08:02;8.73;;;2.83;;
3307;SDS011;1666;48.898;9.182;2022-09-27T04:10:33;9.57;;;2.78;;
3307;SDS011;1666;48.898;9.182;2022-09-27T04:13:05;8.60;;;2.03;;
3307;SDS011;1666;48.898;9.182;2022-09-27T04:15:35;7.10;;;2.50;;
3307;SDS011;1666;48.898;9.182;2022-09-27T04:18:05;7.32;;;2.53;;
3307;SDS011;1666;48.898;9.182;2022-09-27T04:20:38;5.55;;;1.92;;
3307;SDS011;1666;48.898;9.182;2022-09-27T04:23:08;9.18;;;2.67;;
3307;SDS011;1666;48.898;9.182;2022-09-27T04:25:38;7.22;;;2.78;;
3307;SDS011;1666;48.898;9.182;2022-09-27T04:28:08;5.85;;;1.88;;
3307;SDS011;1666;48.898;9.182;2022-09-27T04:30:38;6.60;;;2.25;;
3307;SDS011;1666;48.898;9.182;2022-09-27T04:33:08;4.82;;;2.38;;
3307;SDS011;1666;48.898;9.182;2022-09-27T04:35:41;6.22;;;2.25;;
3307;SDS011;1666;48.898;9.182;2022-09-27T04:38:23;7.70;;;2.33;;
3307;SDS011;1666;48.898;9.182;2022-09-27T04:40:53;5.63;;;2.72;;
3307;SDS011;1666;48.898;9.182;2022-09-27T04:43:23;6.50;;;2.13;;
3307;SDS011;1666;48.898;9.182;2022-09-27T04:45:53;8.45;;;2.50;;
3307;SDS011;1666;48.898;9.182;2022-09-27T04:48:23;7.57;;;2.42;;
3307;SDS011;1666;48.898;9.182;2022-09-27T04:50:59;6.10;;;2.45;;
3307;SDS011;1666;48.898;9.182;2022-09-27T04:53:30;6.35;;;2.17;;
3307;SDS011;1666;48.898;9.182;2022-09-27T04:56:01;6.15;;;2.40;;
3307;SDS011;1666;48.898;9.182;2022-09-27T04:58:32;6.53;;;2.10;;
3307;SDS011;1666;48.898;9.182;2022-09-27T05:01:03;6.78;;;2.15;;
3307;SDS011;1666;48.898;9.182;2022-09-27T05:03:34;6.43;;;2.67;;
3307;SDS011;1666;48.898;9.182;2022-09-27T05:06:07;5.55;;;2.08;;
3307;SDS011;1666;48.898;9.182;2022-09-27T05:08:37;4.93;;;2.13;;
3307;SDS011;1666;48.898;9.182;2022-09-27T05:11:07;4.68;;;1.88;;
3307;SDS011;1666;48.898;9.182;2022-09-27T05:13:37;6.00;;;1.52;;
3307;SDS011;1666;48.898;9.182;2022-09-27T05:16:07;4.90;;;1.70;;
3307;SDS011;1666;48.898;9.182;2022-09-27T05:18:38;4.10;;;1.20;;
3307;SDS011;1666;48.898;9.182;2022-09-27T05:21:11;3.47;;;1.73;;
3307;SDS011;1666;48.898;9.182;2022-09-27T05:23:41;3.45;;;1.95;;
3307;SDS011;1666;48.898;9.182;2022-09-27T05:26:13;4.28;;;1.60;;
3307;SDS011;1666;48.898;9.182;2022-09-27T05:28:43;2.95;;;1.05;;
3307;SDS011;1666;48.898;9.182;2022-09-27T05:31:13;4.07;;;1.30;;
3307;SDS011;1666;48.898;9.182;2022-09-27T05:33:43;7.57;;;1.77;;
3307;SDS011;1666;48.898;9.182;2022-09-27T05:36:16;2.28;;;1.40;;
3307;SDS011;1666;48.898;9.182;2022-09-27T05:38:46;3.67;;;1.52;;
3307;SDS011;1666;48.898;9.182;2022-09-27T05:41:15;2.55;;;1.48;;
3307;SDS011;1666;48.898;9.182;2022-09-27T05:43:45;2.20;;;1.30;;
3307;SDS011;1666;48.898;9.182;2022-09-27T05:46:15;2.33;;;1.80;;
3307;SDS011;1666;48.898;9.182;2022-09-27T05:48:45;6.45;;;1.45;;
3307;SDS011;1666;48.898;9.182;2022-09-27T05:51:18;2.83;;;1.30;;
3307;SDS011;1666;48.898;9.182;2022-09-27T05:53:48;2.85;;;1.48;;
3307;SDS011;1666;48.898;9.182;2022-09-27T05:56:17;2.30;;;1.50;;
3307;SDS011;1666;48.898;9.182;2022-09-27T05:58:47;6.63;;;1.60;;
3307;SDS011;1666;48.898;9.182;2022-09-27T06:01:17;2.60;;;1.80;;
3307;SDS011;1666;48.898;9.182;2022-09-27T06:03:47;3.35;;;1.60;;
3307;SDS011;1666;48.898;9.182;2022-09-27T06:06:21;2.75;;;1.60;;
3307;SDS011;1666;48.898;9.182;2022-09-27T06:08:51;4.38;;;1.80;;
3307;SDS011;1666;48.898;9.182;2022-09-27T06:11:21;3.63;;;1.73;;
3307;SDS011;1666;48.898;9.182;2022-09-27T06:13:53;2.92;;;1.65;;
3307;SDS011;1666;48.898;9.182;2022-09-27T06:16:22;2.45;;;1.55;;
3307;SDS011;1666;48.898;9.182;2022-09-27T06:18:52;2.60;;;1.80;;
3307;SDS011;1666;48.898;9.182;2022-09-27T06:21:25;3.88;;;1.77;;
3307;SDS011;1666;48.898;9.182;2022-09-27T06:23:57;5.00;;;2.22;;
3307;SDS011;1666;48.898;9.182;2022-09-27T06:26:27;10.60;;;2.28;;
3307;SDS011;1666;48.898;9.182;2022-09-27T06:28:59;2.92;;;1.77;;
3307;SDS011;1666;48.898;9.182;2022-09-27T06:31:29;5.43;;;2.00;;
3307;SDS011;1666;48.898;9.182;2022-09-27T06:34:00;3.63;;;2.47;;
3307;SDS011;1666;48.898;9.182;2022-09-27T06:36:32;5.90;;;1.77;;
3307;SDS011;1666;48.898;9.182;2022-09-27T06:39:02;4.78;;;1.95;;
3307;SDS011;1666;48.898;9.182;2022-09-27T06:41:32;3.80;;;1.85;;
3307;SDS011;1666;48.898;9.182;2022-09-27T06:44:02;1.67;;;1.17;;
3307;SDS011;1666;48.898;9.182;2022-09-27T06:46:33;2.63;;;1.40;;
3307;SDS011;1666;48.898;9.182;2022-09-27T06:49:03;3.47;;;1.35;;
3307;SDS011;1666;48.898;9.182;2022-09-27T06:51:36;3.58;;;1.20;;
3307;SDS011;1666;48.898;9.182;2022-09-27T06:54:06;2.42;;;0.98;;
3307;SDS011;1666;48.898;9.182;2022-09-27T06:56:36;2.08;;;0.90;;
3307;SDS011;1666;48.898;9.182;2022-09-27T06:59:06;2.60;;;1.20;;
3307;SDS011;1666;48.898;9.182;2022-09-27T07:01:48;2.17;;;1.00;;
3307;SDS011;1666;48.898;9.182;2022-09-27T07:04:19;1.42;;;0.90;;
3307;SDS011;1666;48.898;9.182;2022-09-27T07:06:51;7.03;;;3.80;;
3307;SDS011;1666;48.898;9.182;2022-09-27T07:09:21;2.60;;;1.65;;
3307;SDS011;1666;48.898;9.182;2022-09-27T07:11:51;0.80;;;0.63;;
3307;SDS011;1666;48.898;9.182;2022-09-27T07:14:22;1.40;;;0.70;;
3307;SDS011;1666;48.898;9.182;2022-09-27T07:16:52;1.95;;;0.80;;
3307;SDS011;1666;48.898;9.182;2022-09-27T07:19:22;1.73;;;0.98;;
3307;SDS011;1666;48.898;9.182;2022-09-27T07:21:55;2.78;;;1.58;;
3307;SDS011;1666;48.898;9.182;2022-09-27T07:24:25;1.25;;;0.65;;
3307;SDS011;1666;48.898;9.182;2022-09-27T07:26:55;1.15;;;0.60;;
3307;SDS011;1666;48.898;9.182;2022-09-27T07:29:25;3.08;;;0.60;;
3307;SDS011;1666;48.898;9.182;2022-09-27T07:31:55;1.02;;;0.60;;
3307;SDS011;1666;48.898;9.182;2022-09-27T07:34:24;1.50;;;0.70;;
3307;SDS011;1666;48.898;9.182;2022-09-27T07:37:00;0.80;;;0.43;;
3307;SDS011;1666;48.898;9.182;2022-09-27T07:39:31;1.92;;;0.50;;
3307;SDS011;1666;48.898;9.182;2022-09-27T07:42:01;1.35;;;0.70;;
3307;SDS011;1666;48.898;9.182;2022-09-27T07:44:31;1.90;;;0.77;;
3307;SDS011;1666;48.898;9.182;2022-09-27T07:47:01;2.08;;;0.80;;
3307;SDS011;1666;48.898;9.182;2022-09-27T07:49:34;2.30;;;0.93;;
3307;SDS011;1666;48.898;9.182;2022-09-27T07:52:07;2.28;;;1.00;;
3307;SDS011;1666;48.898;9.182;2022-09-27T07:54:37;1.80;;;1.33;;
3307;SDS011;1666;48.898;9.182;2022-09-27T07:57:07;2.67;;;1.35;;
3307;SDS011;1666;48.898;9.182;2022-09-27T07:59:37;1.30;;;0.95;;
3307;SDS011;1666;48.898;9.182;2022-09-27T08:02:08;2.13;;;1.10;;
3307;SDS011;1666;48.898;9.182;2022-09-27T08:04:41;1.30;;;1.10;;
3307;SDS011;1666;48.898;9.182;2022-09-27T08:07:15;3.63;;;1.40;;
3307;SDS011;1666;48.898;9.182;2022-09-27T08:09:45;3.35;;;1.27;;
3307;SDS011;1666;48.898;9.182;2022-09-27T08:12:15;2.67;;;1.50;;
3307;SDS011;1666;48.898;9.182;2022-09-27T08:14:47;3.22;;;1.00;;
3307;SDS011;1666;48.898;9.182;2022-09-27T08:17:17;2.45;;;1.23;;
3307;SDS011;1666;48.898;9.182;2022-09-27T08:19:47;2.88;;;1.30;;
3307;SDS011;1666;48.898;9.182;2022-09-27T08:22:20;4.00;;;1.20;;
3307;SDS011;1666;48.898;9.182;2022-09-27T08:24:50;2.15;;;1.25;;
3307;SDS011;1666;48.898;9.182;2022-09-27T08:27:20;2.50;;;1.25;;
3307;SDS011;1666;48.898;9.182;2022-09-27T08:29:49;1.23;;;1.00;;
3307;SDS011;1666;48.898;9.182;2022-09-27T08:32:19;2.05;;;1.30;;
3307;SDS011;1666;48.898;9.182;2022-09-27T08:34:50;1.10;;;1.00;;
3307;SDS011;1666;48.898;9.182;2022-09-27T08:37:22;1.98;;;1.05;;
3307;SDS011;1666;48.898;9.182;2022-09-27T08:39:52;3.40;;;1.08;;
3307;SDS011;1666;48.898;9.182;2022-09-27T08:42:24;2.28;;;1.00;;
3307;SDS011;1666;48.898;9.182;2022-09-27T08:45:01;2.60;;;0.90;;
3307;SDS011;1666;48.898;9.182;2022-09-27T08:47:36;2.95;;;0.80;;
3307;SDS011;1666;48.898;9.182;2022-09-27T08:50:13;2.83;;;1.15;;
3307;SDS011;1666;48.898;9.182;2022-09-27T08:52:56;1.77;;;1.30;;
3307;SDS011;1666;48.898;9.182;2022-09-27T08:55:31;3.55;;;1.92;;
3307;SDS011;1666;48.898;9.182;2022-09-27T08:58:09;3.22;;;1.20;;
3307;SDS011;1666;48.898;9.182;2022-09-27T09:00:43;2.28;;;1.38;;
3307;SDS011;1666;48.898;9.182;2022-09-27T09:03:15;3.05;;;1.40;;
3307;SDS011;1666;48.898;9.182;2022-09-27T09:05:48;2.75;;;1.50;;
3307;SDS011;1666;48.898;9.182;2022-09-27T09:08:31;3.13;;;1.50;;
3307;SDS011;1666;48.898;9.182;2022-09-27T09:11:13;2.80;;;1.50;;
3307;SDS011;1666;48.898;9.182;2022-09-27T09:14:22;3.97;;;1.77;;
3307;SDS011;1666;48.898;9.182;2022-09-27T09:17:09;4.03;;;1.42;;
3307;SDS011;1666;48.898;9.182;2022-09-27T09:19:56;2.78;;;1.25;;
3307;SDS011;1666;48.898;9.182;2022-09-27T09:22:47;6.38;;;1.30;;
3307;SDS011;1666;48.898;9.182;2022-09-27T09:25:42;3.78;;;1.55;;
3307;SDS011;1666;48.898;9.182;2022-09-27T09:28:28;3.22;;;1.40;;
3307;SDS011;1666;48.898;9.182;2022-09-27T09:31:10;3.33;;;1.23;;
3307;SDS011;1666;48.898;9.182;2022-09-27T09:33:49;3.97;;;1.70;;
3307;SDS011;1666;48.898;9.182;2022-09-27T09:36:25;2.83;;;1.38;;
3307;SDS011;1666;48.898;9.182;2022-09-27T09:38:58;2.60;;;1.40;;
3307;SDS011;1666;48.898;9.182;2022-09-27T09:41:36;3.75;;;1.38;;
3307;SDS011;1666;48.898;9.182;2022-09-27T09:44:13;1.90;;;1.20;;
3307;SDS011;1666;48.898;9.182;2022-09-27T09:46:47;5.35;;;1.40;;
3307;SDS011;1666;48.898;9.182;2022-09-27T09:49:22;2.80;;;1.42;;
3307;SDS011;1666;48.898;9.182;2022-09-27T09:54:35;1.33;;;1.00;;
3307;SDS011;1666;48.898;9.182;2022-09-27T09:57:14;2.60;;;1.13;;
3307;SDS011;1666;48.898;9.182;2022-09-27T09:59:47;0.98;;;0.80;;
3307;SDS011;1666;48.898;9.182;2022-09-27T10:02:24;1.85;;;1.40;;
3307;SDS011;1666;48.898;9.182;2022-09-27T10:04:58;3.03;;;1.63;;
3307;SDS011;1666;48.898;9.182;2022-09-27T10:07:33;3.83;;;1.67;;
3307;SDS011;1666;48.898;9.182;2022-09-27T10:10:07;3.88;;;2.08;;
3307;SDS011;1666;48.898;9.182;2022-09-27T10:12:44;3.90;;;2.00;;
3307;SDS011;1666;48.898;9.182;2022-09-27T10:15:15;2.88;;;1.65;;
3307;SDS011;1666;48.898;9.182;2022-09-27T10:18:07;2.78;;;1.48;;
3307;SDS011;1666;48.898;9.182;2022-09-27T10:20:45;5.97;;;1.80;;
3307;SDS011;1666;48.898;9.182;2022-09-27T10:23:21;2.88;;;1.65;;
3307;SDS011;1666;48.898;9.182;2022-09-27T10:25:52;6.90;;;1.65;;
3307;SDS011;1666;48.898;9.182;2022-09-27T10:28:30;4.10;;;1.50;;
3307;SDS011;1666;48.898;9.182;2022-09-27T10:31:03;4.20;;;1.52;;
3307;SDS011;1666;48.898;9.182;2022-09-27T10:33:36;5.28;;;1.83;;
3307;SDS011;1666;48.898;9.182;2022-09-27T10:36:22;3.42;;;1.60;;
3307;SDS011;1666;48.898;9.182;2022-09-27T10:38:55;5.20;;;1.48;;
3307;SDS011;1666;48.898;9.182;2022-09-27T10:41:30;1.80;;;1.20;;
3307;SDS011;1666;48.898;9.182;2022-09-27T10:46:53;3.80;;;1.45;;
3307;SDS011;1666;48.898;9.182;2022-09-27T10:49:26;5.70;;;1.77;;
3307;SDS011;1666;48.898;9.182;2022-09-27T10:52:00;4.35;;;1.45;;
3307;SDS011;1666;48.898;9.182;2022-09-27T10:54:32;4.50;;;1.85;;
3307;SDS011;1666;48.898;9.182;2022-09-27T10:57:05;3.13;;;1.40;;
3307;SDS011;1666;48.898;9.182;2022-09-27T10:59:51;3.70;;;1.50;;
3307;SDS011;1666;48.898;9.182;2022-09-27T11:02:23;5.00;;;1.60;;
3307;SDS011;1666;48.898;9.182;2022-09-27T11:05:02;2.95;;;1.38;;
3307;SDS011;1666;48.898;9.182;2022-09-27T11:07:46;3.53;;;1.80;;
3307;SDS011;1666;48.898;9.182;2022-09-27T11:10:20;3.03;;;1.60;;
3307;SDS011;1666;48.898;9.182;2022-09-27T11:13:07;6.03;;;2.10;;
3307;SDS011;1666;48.898;9.182;2022-09-27T11:15:48;5.13;;;1.77;;
3307;SDS011;1666;48.898;9.182;2022-09-27T11:18:27;6.00;;;2.00;;
3307;SDS011;1666;48.898;9.182;2022-09-27T11:21:05;2.75;;;1.63;;
3307;SDS011;1666;48.898;9.182;2022-09-27T11:23:50;2.28;;;2.08;;
3307;SDS011;1666;48.898;9.182;2022-09-27T11:26:35;4.70;;;2.55;;
3307;SDS011;1666;48.898;9.182;2022-09-27T11:29:19;4.93;;;2.45;;
3307;SDS011;1666;48.898;9.182;2022-09-27T11:32:04;8.38;;;2.60;;
3307;SDS011;1666;48.898;9.182;2022-09-27T11:34:45;5.20;;;2.60;;
3307;SDS011;1666;48.898;9.182;2022-09-27T11:37:30;4.13;;;2.20;;
3307;SDS011;1666;48.898;9.182;2022-09-27T11:40:11;4.63;;;2.50;;
3307;SDS011;1666;48.898;9.182;2022-09-27T11:43:06;7.20;;;3.30;;
3307;SDS011;1666;48.898;9.182;2022-09-27T11:45:53;5.75;;;2.75;;
3307;SDS011;1666;48.898;9.182;2022-09-27T11:54:37;3.67;;;1.77;;
3307;SDS011;1666;48.898;9.182;2022-09-27T11:57:15;3.30;;;1.42;;
3307;SDS011;1666;48.898;9.182;2022-09-27T11:59:58;4.82;;;1.52;;
3307;SDS011;1666;48.898;9.182;2022-09-27T12:06:10;5.80;;;1.25;;
3307;SDS011;1666;48.898;9.182;2022-09-27T12:08:53;1.60;;;1.08;;
3307;SDS011;1666;48.898;9.182;2022-09-27T12:11:33;1.27;;;0.90;;
3307;SDS011;1666;48.898;9.182;2022-09-27T12:14:08;3.00;;;1.10;;
3307;SDS011;1666;48.898;9.182;2022-09-27T12:16:44;2.15;;;1.17;;
3307;SDS011;1666;48.898;9.182;2022-09-27T12:19:18;2.67;;;1.08;;
3307;SDS011;1666;48.898;9.182;2022-09-27T12:21:56;1.58;;;0.80;;
3307;SDS011;1666;48.898;9.182;2022-09-27T12:24:29;2.00;;;0.90;;
3307;SDS011;1666;48.898;9.182;2022-09-27T12:27:02;2.60;;;0.82;;
3307;SDS011;1666;48.898;9.182;2022-09-27T12:29:37;3.17;;;0.80;;
3307;SDS011;1666;48.898;9.182;2022-09-27T12:32:12;1.75;;;0.85;;
3307;SDS011;1666;48.898;9.182;2022-09-27T12:34:47;1.85;;;0.90;;
3307;SDS011;1666;48.898;9.182;2022-09-27T12:37:26;0.88;;;0.70;;
3307;SDS011;1666;48.898;9.182;2022-09-27T12:40:00;2.47;;;0.80;;
3307;SDS011;1666;48.898;9.182;2022-09-27T12:42:52;0.80;;;0.70;;
3307;SDS011;1666;48.898;9.182;2022-09-27T12:45:26;1.27;;;0.80;;
3307;SDS011;1666;48.898;9.182;2022-09-27T12:48:09;2.10;;;0.80;;
3307;SDS011;1666;48.898;9.182;2022-09-27T12:50:47;0.73;;;0.65;;
3307;SDS011;1666;48.898;9.182;2022-09-27T12:53:22;3.25;;;0.90;;
3307;SDS011;1666;48.898;9.182;2022-09-27T13:02:11;2.65;;;1.10;;
3307;SDS011;1666;48.898;9.182;2022-09-27T13:05:02;1.02;;;0.85;;
3307;SDS011;1666;48.898;9.182;2022-09-27T13:07:53;2.80;;;1.20;;
3307;SDS011;1666;48.898;9.182;2022-09-27T13:10:50;3.13;;;1.10;;
3307;SDS011;1666;48.898;9.182;2022-09-27T13:13:29;2.08;;;1.40;;
3307;SDS011;1666;48.898;9.182;2022-09-27T13:16:02;3.72;;;1.35;;
3307;SDS011;1666;48.898;9.182;2022-09-27T13:24:38;5.47;;;1.50;;
3307;SDS011;1666;48.898;9.182;2022-09-27T13:33:28;2.47;;;1.48;;
3307;SDS011;1666;48.898;9.182;2022-09-27T13:39:02;2.92;;;1.50;;
3307;SDS011;1666;48.898;9.182;2022-09-27T13:47:57;1.27;;;0.90;;
3307;SDS011;1666;48.898;9.182;2022-09-27T13:50:35;1.52;;;0.82;;
3307;SDS011;1666;48.898;9.182;2022-09-27T13:53:18;2.90;;;1.10;;
3307;SDS011;1666;48.898;9.182;2022-09-27T13:55:52;2.78;;;0.90;;
3307;SDS011;1666;48.898;9.182;2022-09-27T14:01:23;3.80;;;1.10;;
3307;SDS011;1666;48.898;9.182;2022-09-27T14:03:58;3.10;;;1.08;;
3307;SDS011;1666;48.898;9.182;2022-09-27T14:06:31;2.33;;;1.95;;
3307;SDS011;1666;48.898;9.182;2022-09-27T14:09:04;4.00;;;1.70;;
3307;SDS011;1666;48.898;9.182;2022-09-27T14:11:42;4.15;;;1.77;;
3307;SDS011;1666;48.898;9.182;2022-09-27T14:14:19;2.55;;;1.38;;
3307;SDS011;1666;48.898;9.182;2022-09-27T14:16:54;4.70;;;1.58;;
3307;SDS011;1666;48.898;9.182;2022-09-27T14:19:37;1.85;;;1.35;;
3307;SDS011;1666;48.898;9.182;2022-09-27T14:22:11;2.25;;;1.73;;
3307;SDS011;1666;48.898;9.182;2022-09-27T14:24:43;2.10;;;1.40;;
3307;SDS011;1666;48.898;9.182;2022-09-27T14:27:16;1.67;;;1.10;;
3307;SDS011;1666;48.898;9.182;2022-09-27T14:29:48;2.15;;;1.38;;
3307;SDS011;1666;48.898;9.182;2022-09-27T14:32:22;3.72;;;1.48;;
3307;SDS011;1666;48.898;9.182;2022-09-27T14:35:07;3.25;;;1.42;;
3307;SDS011;1666;48.898;9.182;2022-09-27T14:37:52;4.28;;;1.90;;
3307;SDS011;1666;48.898;9.182;2022-09-27T14:40:22;3.15;;;1.40;;
3307;SDS011;1666;48.898;9.182;2022-09-27T14:42:52;2.42;;;1.13;;
3307;SDS011;1666;48.898;9.182;2022-09-27T14:45:25;2.53;;;1.67;;
3307;SDS011;1666;48.898;9.182;2022-09-27T14:48:15;2.95;;;1.60;;
3307;SDS011;1666;48.898;9.182;2022-09-27T14:50:54;2.42;;;1.42;;
3307;SDS011;1666;48.898;9.182;2022-09-27T14:53:34;1.92;;;1.10;;
3307;SDS011;1666;48.898;9.182;2022-09-27T14:56:05;1.80;;;1.42;;
3307;SDS011;1666;48.898;9.182;2022-09-27T14:58:38;3.35;;;2.28;;
3307;SDS011;1666;48.898;9.182;2022-09-27T15:01:14;2.40;;;1.50;;
3307;SDS011;1666;48.898;9.182;2022-09-27T15:03:48;3.75;;;1.73;;
3307;SDS011;1666;48.898;9.182;2022-09-27T15:06:19;3.97;;;1.63;;
3307;SDS011;1666;48.898;9.182;2022-09-27T15:08:50;2.63;;;1.58;;
3307;SDS011;1666;48.898;9.182;2022-09-27T15:11:20;7.57;;;3.10;;
3307;SDS011;1666;48.898;9.182;2022-09-27T15:13:50;1.23;;;1.10;;
3307;SDS011;1666;48.898;9.182;2022-09-27T15:16:21;2.70;;;1.27;;
3307;SDS011;1666;48.898;9.182;2022-09-27T15:19:01;4.95;;;2.40;;
3307;SDS011;1666;48.898;9.182;2022-09-27T15:21:36;1.90;;;1.30;;
3307;SDS011;1666;48.898;9.182;2022-09-27T15:24:33;3.20;;;1.60;;
3307;SDS011;1666;48.898;9.182;2022-09-27T15:27:12;2.00;;;1.10;;
3307;SDS011;1666;48.898;9.182;2022-09-27T15:29:46;5.97;;;1.20;;
3307;SDS011;1666;48.898;9.182;2022-09-27T15:32:19;2.72;;;1.20;;
3307;SDS011;1666;48.898;9.182;2022-09-27T15:34:50;3.08;;;1.88;;
3307;SDS011;1666;48.898;9.182;2022-09-27T15:37:25;2.30;;;1.27;;
3307;SDS011;1666;48.898;9.182;2022-09-27T15:40:01;2.17;;;0.90;;
3307;SDS011;1666;48.898;9.182;2022-09-27T15:43:17;3.03;;;1.40;;
3307;SDS011;1666;48.898;9.182;2022-09-27T15:45:51;2.38;;;0.80;;
3307;SDS011;1666;48.898;9.182;2022-09-27T15:48:21;3.25;;;1.00;;
3307;SDS011;1666;48.898;9.182;2022-09-27T15:50:51;2.78;;;0.82;;
3307;SDS011;1666;48.898;9.182;2022-09-27T15:56:13;3.05;;;0.85;;
3307;SDS011;1666;48.898;9.182;2022-09-27T15:58:44;2.05;;;1.00;;
3307;SDS011;1666;48.898;9.182;2022-09-27T16:01:16;3.65;;;1.50;;
3307;SDS011;1666;48.898;9.182;2022-09-27T16:03:47;2.58;;;0.90;;
3307;SDS011;1666;48.898;9.182;2022-09-27T16:06:17;2.20;;;0.98;;
3307;SDS011;1666;48.898;9.182;2022-09-27T16:08:48;1.00;;;0.80;;
3307;SDS011;1666;48.898;9.182;2022-09-27T16:11:21;3.38;;;0.82;;
3307;SDS011;1666;48.898;9.182;2022-09-27T16:13:50;3.80;;;1.00;;
3307;SDS011;1666;48.898;9.182;2022-09-27T16:16:21;1.88;;;0.85;;
3307;SDS011;1666;48.898;9.182;2022-09-27T16:18:51;3.00;;;1.30;;
3307;SDS011;1666;48.898;9.182;2022-09-27T16:21:21;3.72;;;1.40;;
3307;SDS011;1666;48.898;9.182;2022-09-27T16:23:51;3.80;;;1.10;;
3307;SDS011;1666;48.898;9.182;2022-09-27T16:26:23;3.15;;;1.40;;
3307;SDS011;1666;48.898;9.182;2022-09-27T16:28:54;3.80;;;2.30;;
3307;SDS011;1666;48.898;9.182;2022-09-27T16:31:24;4.50;;;2.10;;
3307;SDS011;1666;48.898;9.182;2022-09-27T16:33:53;1.65;;;1.15;;
3307;SDS011;1666;48.898;9.182;2022-09-27T16:36:23;4.18;;;1.25;;
3307;SDS011;1666;48.898;9.182;2022-09-27T16:38:53;1.48;;;0.90;;
3307;SDS011;1666;48.898;9.182;2022-09-27T16:41:25;4.15;;;1.55;;
3307;SDS011;1666;48.898;9.182;2022-09-27T16:43:55;3.13;;;1.02;;
3307;SDS011;1666;48.898;9.182;2022-09-27T16:46:25;2.20;;;1.40;;
3307;SDS011;1666;48.898;9.182;2022-09-27T16:48:55;2.25;;;1.25;;
3307;SDS011;1666;48.898;9.182;2022-09-27T16:51:25;6.32;;;1.50;;